sensor_id;sensor_type;location;lat;lon;timestamp;P1;durP1;ratioP1;P2;durP2;ratioP2
76459;SDS011;65299;46.084;18.762;2023-08-17T00:02:33;3.65;;;3.33;;
76459;SDS011;65299;46.084;18.762;2023-08-17T00:05:33;5.47;;;3.80;;
76459;SDS011;65299;46.084;18.762;2023-08-17T00:08:33;4.37;;;3.97;;
76459;SDS011;65299;46.084;18.762;2023-08-17T00:11:34;5.20;;;4.20;;
76459;SDS011;65299;46.084;18.762;2023-08-17T00:14:34;5.60;;;4.25;;
76459;SDS011;65299;46.084;18.762;2023-08-17T00:17:35;5.23;;;4.00;;
76459;SDS011;65299;46.084;18.762;2023-08-17T00:20:35;5.70;;;4.80;;
76459;SDS011;65299;46.084;18.762;2023-08-17T00:23:36;4.90;;;4.03;;
76459;SDS011;65299;46.084;18.762;2023-08-17T00:26:36;4.97;;;4.25;;
76459;SDS011;65299;46.084;18.762;2023-08-17T00:29:37;5.50;;;4.57;;
76459;SDS011;65299;46.084;18.762;2023-08-17T00:32:38;5.82;;;4.60;;
76459;SDS011;65299;46.084;18.762;2023-08-17T00:35:39;5.43;;;4.40;;
76459;SDS011;65299;46.084;18.762;2023-08-17T00:38:39;5.60;;;4.73;;
76459;SDS011;65299;46.084;18.762;2023-08-17T00:41:40;5.77;;;4.73;;
76459;SDS011;65299;46.084;18.762;2023-08-17T00:44:40;6.38;;;4.90;;
76459;SDS011;65299;46.084;18.762;2023-08-17T00:47:41;6.80;;;4.97;;
76459;SDS011;65299;46.084;18.762;2023-08-17T00:50:42;9.32;;;5.05;;
76459;SDS011;65299;46.084;18.762;2023-08-17T00:53:43;6.03;;;4.90;;
76459;SDS011;65299;46.084;18.762;2023-08-17T00:56:44;7.15;;;5.22;;
76459;SDS011;65299;46.084;18.762;2023-08-17T00:59:45;7.83;;;5.47;;
76459;SDS011;65299;46.084;18.762;2023-08-17T01:02:46;8.43;;;5.60;;
76459;SDS011;65299;46.084;18.762;2023-08-17T01:05:47;5.97;;;5.22;;
76459;SDS011;65299;46.084;18.762;2023-08-17T01:08:48;8.60;;;5.77;;
76459;SDS011;65299;46.084;18.762;2023-08-17T01:16:12;8.25;;;5.70;;
76459;SDS011;65299;46.084;18.762;2023-08-17T01:18:57;9.13;;;6.03;;
76459;SDS011;65299;46.084;18.762;2023-08-17T01:22:00;8.23;;;6.25;;
76459;SDS011;65299;46.084;18.762;2023-08-17T01:25:05;8.80;;;6.25;;
76459;SDS011;65299;46.084;18.762;2023-08-17T01:28:05;7.70;;;5.47;;
76459;SDS011;65299;46.084;18.762;2023-08-17T01:31:14;7.93;;;5.47;;
76459;SDS011;65299;46.084;18.762;2023-08-17T01:34:25;8.57;;;6.17;;
76459;SDS011;65299;46.084;18.762;2023-08-17T01:37:28;9.55;;;6.30;;
76459;SDS011;65299;46.084;18.762;2023-08-17T01:40:33;12.65;;;7.32;;
76459;SDS011;65299;46.084;18.762;2023-08-17T01:43:34;10.52;;;7.45;;
76459;SDS011;65299;46.084;18.762;2023-08-17T01:46:35;11.57;;;7.37;;
76459;SDS011;65299;46.084;18.762;2023-08-17T01:49:37;11.15;;;8.05;;
76459;SDS011;65299;46.084;18.762;2023-08-17T01:52:37;9.83;;;7.90;;
76459;SDS011;65299;46.084;18.762;2023-08-17T01:55:38;10.95;;;8.02;;
76459;SDS011;65299;46.084;18.762;2023-08-17T01:58:38;10.03;;;7.90;;
76459;SDS011;65299;46.084;18.762;2023-08-17T02:01:38;10.57;;;8.03;;
76459;SDS011;65299;46.084;18.762;2023-08-17T02:04:39;10.40;;;8.30;;
76459;SDS011;65299;46.084;18.762;2023-08-17T02:07:39;10.38;;;7.68;;
76459;SDS011;65299;46.084;18.762;2023-08-17T02:10:40;9.43;;;7.20;;
76459;SDS011;65299;46.084;18.762;2023-08-17T02:13:40;11.33;;;8.10;;
76459;SDS011;65299;46.084;18.762;2023-08-17T02:16:40;10.03;;;7.83;;
76459;SDS011;65299;46.084;18.762;2023-08-17T02:19:41;10.33;;;8.17;;
76459;SDS011;65299;46.084;18.762;2023-08-17T02:22:41;12.80;;;9.07;;
76459;SDS011;65299;46.084;18.762;2023-08-17T02:25:41;13.87;;;9.07;;
76459;SDS011;65299;46.084;18.762;2023-08-17T02:28:42;12.17;;;9.10;;
76459;SDS011;65299;46.084;18.762;2023-08-17T02:31:42;12.57;;;10.00;;
76459;SDS011;65299;46.084;18.762;2023-08-17T02:34:43;13.80;;;10.10;;
76459;SDS011;65299;46.084;18.762;2023-08-17T02:37:43;14.40;;;10.30;;
76459;SDS011;65299;46.084;18.762;2023-08-17T02:40:44;12.77;;;9.90;;
76459;SDS011;65299;46.084;18.762;2023-08-17T02:43:44;13.83;;;10.10;;
76459;SDS011;65299;46.084;18.762;2023-08-17T02:46:44;12.15;;;9.63;;
76459;SDS011;65299;46.084;18.762;2023-08-17T02:49:45;13.33;;;10.10;;
76459;SDS011;65299;46.084;18.762;2023-08-17T02:52:45;15.63;;;10.03;;
76459;SDS011;65299;46.084;18.762;2023-08-17T02:55:46;15.00;;;9.67;;
76459;SDS011;65299;46.084;18.762;2023-08-17T02:58:46;13.53;;;9.70;;
76459;SDS011;65299;46.084;18.762;2023-08-17T03:01:46;13.93;;;10.20;;
76459;SDS011;65299;46.084;18.762;2023-08-17T03:04:47;12.50;;;9.90;;
76459;SDS011;65299;46.084;18.762;2023-08-17T03:07:47;15.13;;;10.73;;
76459;SDS011;65299;46.084;18.762;2023-08-17T03:10:48;14.20;;;10.03;;
76459;SDS011;65299;46.084;18.762;2023-08-17T03:13:48;15.13;;;10.38;;
76459;SDS011;65299;46.084;18.762;2023-08-17T03:16:48;14.33;;;10.90;;
76459;SDS011;65299;46.084;18.762;2023-08-17T03:19:49;15.73;;;10.50;;
76459;SDS011;65299;46.084;18.762;2023-08-17T03:22:49;13.13;;;10.35;;
76459;SDS011;65299;46.084;18.762;2023-08-17T03:25:53;11.50;;;9.87;;
76459;SDS011;65299;46.084;18.762;2023-08-17T03:28:54;11.52;;;9.05;;
76459;SDS011;65299;46.084;18.762;2023-08-17T03:31:54;13.13;;;10.43;;
76459;SDS011;65299;46.084;18.762;2023-08-17T03:34:55;17.57;;;10.20;;
76459;SDS011;65299;46.084;18.762;2023-08-17T03:37:55;13.90;;;10.23;;
76459;SDS011;65299;46.084;18.762;2023-08-17T03:40:56;15.65;;;10.25;;
76459;SDS011;65299;46.084;18.762;2023-08-17T03:43:56;13.30;;;9.97;;
76459;SDS011;65299;46.084;18.762;2023-08-17T03:46:56;15.20;;;10.60;;
76459;SDS011;65299;46.084;18.762;2023-08-17T03:49:57;18.97;;;10.57;;
76459;SDS011;65299;46.084;18.762;2023-08-17T03:52:57;14.52;;;10.13;;
76459;SDS011;65299;46.084;18.762;2023-08-17T03:55:58;15.10;;;10.80;;
76459;SDS011;65299;46.084;18.762;2023-08-17T03:58:58;16.70;;;10.60;;
76459;SDS011;65299;46.084;18.762;2023-08-17T04:01:58;15.67;;;10.87;;
76459;SDS011;65299;46.084;18.762;2023-08-17T04:04:59;18.08;;;11.43;;
76459;SDS011;65299;46.084;18.762;2023-08-17T04:08:00;18.23;;;11.60;;
76459;SDS011;65299;46.084;18.762;2023-08-17T04:11:02;20.20;;;12.60;;
76459;SDS011;65299;46.084;18.762;2023-08-17T04:14:04;17.73;;;12.07;;
76459;SDS011;65299;46.084;18.762;2023-08-17T04:17:04;17.10;;;12.30;;
76459;SDS011;65299;46.084;18.762;2023-08-17T04:20:05;18.13;;;12.37;;
76459;SDS011;65299;46.084;18.762;2023-08-17T04:23:06;17.93;;;12.20;;
76459;SDS011;65299;46.084;18.762;2023-08-17T04:26:06;18.90;;;12.85;;
76459;SDS011;65299;46.084;18.762;2023-08-17T04:29:06;17.17;;;12.43;;
76459;SDS011;65299;46.084;18.762;2023-08-17T04:32:07;20.57;;;12.13;;
76459;SDS011;65299;46.084;18.762;2023-08-17T04:35:07;17.57;;;12.27;;
76459;SDS011;65299;46.084;18.762;2023-08-17T04:38:08;19.67;;;12.68;;
76459;SDS011;65299;46.084;18.762;2023-08-17T04:41:08;19.50;;;11.83;;
76459;SDS011;65299;46.084;18.762;2023-08-17T04:44:09;20.80;;;12.47;;
76459;SDS011;65299;46.084;18.762;2023-08-17T04:47:09;18.05;;;12.38;;
76459;SDS011;65299;46.084;18.762;2023-08-17T04:50:10;19.00;;;12.50;;
76459;SDS011;65299;46.084;18.762;2023-08-17T04:53:12;16.90;;;12.35;;
76459;SDS011;65299;46.084;18.762;2023-08-17T04:56:13;18.23;;;12.07;;
76459;SDS011;65299;46.084;18.762;2023-08-17T04:59:13;21.23;;;12.63;;
76459;SDS011;65299;46.084;18.762;2023-08-17T05:02:13;20.53;;;12.97;;
76459;SDS011;65299;46.084;18.762;2023-08-17T05:05:14;20.33;;;12.43;;
76459;SDS011;65299;46.084;18.762;2023-08-17T05:08:14;15.43;;;11.23;;
76459;SDS011;65299;46.084;18.762;2023-08-17T05:11:15;15.23;;;11.30;;
76459;SDS011;65299;46.084;18.762;2023-08-17T05:14:17;16.15;;;11.35;;
76459;SDS011;65299;46.084;18.762;2023-08-17T05:17:17;15.53;;;10.97;;
76459;SDS011;65299;46.084;18.762;2023-08-17T05:20:18;15.03;;;10.37;;
76459;SDS011;65299;46.084;18.762;2023-08-17T05:23:20;16.45;;;11.10;;
76459;SDS011;65299;46.084;18.762;2023-08-17T05:26:21;15.93;;;10.50;;
76459;SDS011;65299;46.084;18.762;2023-08-17T05:29:22;14.02;;;10.80;;
76459;SDS011;65299;46.084;18.762;2023-08-17T05:32:22;16.27;;;10.53;;
76459;SDS011;65299;46.084;18.762;2023-08-17T05:35:22;12.20;;;10.20;;
76459;SDS011;65299;46.084;18.762;2023-08-17T05:38:23;13.60;;;10.50;;
76459;SDS011;65299;46.084;18.762;2023-08-17T05:41:23;9.70;;;7.40;;
76459;SDS011;65299;46.084;18.762;2023-08-17T05:44:24;10.77;;;8.13;;
76459;SDS011;65299;46.084;18.762;2023-08-17T05:47:24;10.83;;;8.13;;
76459;SDS011;65299;46.084;18.762;2023-08-17T05:50:24;10.27;;;7.80;;
76459;SDS011;65299;46.084;18.762;2023-08-17T05:53:25;11.63;;;7.63;;
76459;SDS011;65299;46.084;18.762;2023-08-17T05:56:25;7.83;;;7.03;;
76459;SDS011;65299;46.084;18.762;2023-08-17T05:59:25;10.13;;;7.10;;
76459;SDS011;65299;46.084;18.762;2023-08-17T06:02:26;8.57;;;6.30;;
76459;SDS011;65299;46.084;18.762;2023-08-17T06:05:27;8.48;;;6.50;;
76459;SDS011;65299;46.084;18.762;2023-08-17T06:08:28;9.37;;;7.03;;
76459;SDS011;65299;46.084;18.762;2023-08-17T06:11:29;9.07;;;6.35;;
76459;SDS011;65299;46.084;18.762;2023-08-17T06:14:29;9.47;;;6.17;;
76459;SDS011;65299;46.084;18.762;2023-08-17T06:17:30;8.50;;;6.50;;
76459;SDS011;65299;46.084;18.762;2023-08-17T06:20:30;8.80;;;6.15;;
76459;SDS011;65299;46.084;18.762;2023-08-17T06:23:31;8.03;;;6.10;;
76459;SDS011;65299;46.084;18.762;2023-08-17T06:26:31;8.73;;;6.43;;
76459;SDS011;65299;46.084;18.762;2023-08-17T06:29:31;9.90;;;6.30;;
76459;SDS011;65299;46.084;18.762;2023-08-17T06:32:32;10.63;;;6.13;;
76459;SDS011;65299;46.084;18.762;2023-08-17T06:35:32;6.80;;;6.00;;
76459;SDS011;65299;46.084;18.762;2023-08-17T06:38:33;8.27;;;6.27;;
76459;SDS011;65299;46.084;18.762;2023-08-17T06:41:33;7.17;;;6.43;;
76459;SDS011;65299;46.084;18.762;2023-08-17T06:44:33;8.88;;;7.10;;
76459;SDS011;65299;46.084;18.762;2023-08-17T06:47:34;8.50;;;6.57;;
76459;SDS011;65299;46.084;18.762;2023-08-17T06:50:34;10.33;;;6.80;;
76459;SDS011;65299;46.084;18.762;2023-08-17T06:53:35;8.00;;;6.67;;
76459;SDS011;65299;46.084;18.762;2023-08-17T06:56:35;9.98;;;7.25;;
76459;SDS011;65299;46.084;18.762;2023-08-17T06:59:36;9.73;;;6.83;;
76459;SDS011;65299;46.084;18.762;2023-08-17T07:02:36;10.47;;;6.80;;
76459;SDS011;65299;46.084;18.762;2023-08-17T07:05:36;7.60;;;6.50;;
76459;SDS011;65299;46.084;18.762;2023-08-17T07:08:37;9.00;;;6.72;;
76459;SDS011;65299;46.084;18.762;2023-08-17T07:11:38;9.30;;;6.70;;
76459;SDS011;65299;46.084;18.762;2023-08-17T07:14:39;7.03;;;6.15;;
76459;SDS011;65299;46.084;18.762;2023-08-17T07:17:39;7.13;;;6.40;;
76459;SDS011;65299;46.084;18.762;2023-08-17T07:20:40;9.23;;;7.07;;
76459;SDS011;65299;46.084;18.762;2023-08-17T07:23:43;6.80;;;6.00;;
76459;SDS011;65299;46.084;18.762;2023-08-17T07:26:45;9.30;;;6.90;;
76459;SDS011;65299;46.084;18.762;2023-08-17T07:29:45;10.83;;;6.47;;
76459;SDS011;65299;46.084;18.762;2023-08-17T07:32:45;8.93;;;6.87;;
76459;SDS011;65299;46.084;18.762;2023-08-17T07:35:46;10.17;;;6.97;;
76459;SDS011;65299;46.084;18.762;2023-08-17T07:38:46;9.13;;;6.33;;
76459;SDS011;65299;46.084;18.762;2023-08-17T07:41:47;8.00;;;6.77;;
76459;SDS011;65299;46.084;18.762;2023-08-17T07:44:47;10.07;;;7.13;;
76459;SDS011;65299;46.084;18.762;2023-08-17T07:47:47;8.37;;;6.63;;
76459;SDS011;65299;46.084;18.762;2023-08-17T07:50:51;8.70;;;6.10;;
76459;SDS011;65299;46.084;18.762;2023-08-17T07:53:52;8.18;;;6.07;;
76459;SDS011;65299;46.084;18.762;2023-08-17T07:56:52;7.37;;;6.53;;
76459;SDS011;65299;46.084;18.762;2023-08-17T07:59:53;9.20;;;6.37;;
76459;SDS011;65299;46.084;18.762;2023-08-17T08:02:53;7.75;;;6.10;;
76459;SDS011;65299;46.084;18.762;2023-08-17T08:05:54;9.97;;;6.37;;
76459;SDS011;65299;46.084;18.762;2023-08-17T08:08:54;7.87;;;6.80;;
76459;SDS011;65299;46.084;18.762;2023-08-17T08:11:55;9.60;;;6.20;;
76459;SDS011;65299;46.084;18.762;2023-08-17T08:14:55;10.40;;;6.38;;
76459;SDS011;65299;46.084;18.762;2023-08-17T08:17:55;7.80;;;5.67;;
76459;SDS011;65299;46.084;18.762;2023-08-17T08:20:56;8.50;;;6.40;;
76459;SDS011;65299;46.084;18.762;2023-08-17T08:23:56;7.53;;;5.87;;
76459;SDS011;65299;46.084;18.762;2023-08-17T08:26:56;10.40;;;6.33;;
76459;SDS011;65299;46.084;18.762;2023-08-17T08:29:57;7.83;;;6.43;;
76459;SDS011;65299;46.084;18.762;2023-08-17T08:32:57;8.73;;;6.50;;
76459;SDS011;65299;46.084;18.762;2023-08-17T08:35:59;8.45;;;6.85;;
76459;SDS011;65299;46.084;18.762;2023-08-17T08:38:59;7.83;;;6.37;;
76459;SDS011;65299;46.084;18.762;2023-08-17T08:41:59;9.33;;;6.57;;
76459;SDS011;65299;46.084;18.762;2023-08-17T08:45:01;6.88;;;5.97;;
76459;SDS011;65299;46.084;18.762;2023-08-17T08:48:01;8.20;;;6.53;;
76459;SDS011;65299;46.084;18.762;2023-08-17T08:51:03;8.50;;;6.70;;
76459;SDS011;65299;46.084;18.762;2023-08-17T08:54:07;9.77;;;6.45;;
76459;SDS011;65299;46.084;18.762;2023-08-17T08:57:13;8.73;;;6.23;;
76459;SDS011;65299;46.084;18.762;2023-08-17T09:00:14;7.25;;;6.53;;
76459;SDS011;65299;46.084;18.762;2023-08-17T09:03:16;9.60;;;6.47;;
76459;SDS011;65299;46.084;18.762;2023-08-17T09:06:18;8.13;;;6.20;;
76459;SDS011;65299;46.084;18.762;2023-08-17T09:09:20;11.33;;;6.73;;
76459;SDS011;65299;46.084;18.762;2023-08-17T09:12:22;9.68;;;6.45;;
76459;SDS011;65299;46.084;18.762;2023-08-17T09:15:23;10.38;;;6.90;;
76459;SDS011;65299;46.084;18.762;2023-08-17T09:18:23;6.87;;;6.27;;
76459;SDS011;65299;46.084;18.762;2023-08-17T09:21:24;8.53;;;6.37;;
76459;SDS011;65299;46.084;18.762;2023-08-17T09:24:33;11.00;;;6.50;;
76459;SDS011;65299;46.084;18.762;2023-08-17T09:27:35;8.45;;;6.70;;
76459;SDS011;65299;46.084;18.762;2023-08-17T09:33:55;9.32;;;6.68;;
76459;SDS011;65299;46.084;18.762;2023-08-17T09:36:55;9.07;;;6.67;;
76459;SDS011;65299;46.084;18.762;2023-08-17T09:39:56;7.88;;;6.80;;
76459;SDS011;65299;46.084;18.762;2023-08-17T09:42:56;8.97;;;6.93;;
76459;SDS011;65299;46.084;18.762;2023-08-17T09:45:57;7.37;;;6.57;;
76459;SDS011;65299;46.084;18.762;2023-08-17T09:48:57;9.00;;;6.30;;
76459;SDS011;65299;46.084;18.762;2023-08-17T09:52:01;7.23;;;6.10;;
76459;SDS011;65299;46.084;18.762;2023-08-17T09:55:02;13.57;;;6.82;;
76459;SDS011;65299;46.084;18.762;2023-08-17T09:58:03;10.10;;;6.53;;
76459;SDS011;65299;46.084;18.762;2023-08-17T10:01:04;6.75;;;6.10;;
76459;SDS011;65299;46.084;18.762;2023-08-17T10:04:05;14.30;;;6.60;;
76459;SDS011;65299;46.084;18.762;2023-08-17T10:07:06;7.28;;;6.50;;
76459;SDS011;65299;46.084;18.762;2023-08-17T10:10:09;7.55;;;5.90;;
76459;SDS011;65299;46.084;18.762;2023-08-17T10:13:11;7.70;;;6.30;;
76459;SDS011;65299;46.084;18.762;2023-08-17T10:19:56;6.50;;;5.90;;
76459;SDS011;65299;46.084;18.762;2023-08-17T10:23:08;7.65;;;6.50;;
76459;SDS011;65299;46.084;18.762;2023-08-17T10:26:14;12.60;;;6.00;;
76459;SDS011;65299;46.084;18.762;2023-08-17T10:29:15;6.70;;;5.65;;
76459;SDS011;65299;46.084;18.762;2023-08-17T10:32:17;6.53;;;5.93;;
76459;SDS011;65299;46.084;18.762;2023-08-17T10:35:18;6.97;;;6.25;;
76459;SDS011;65299;46.084;18.762;2023-08-17T10:38:19;6.90;;;6.10;;
76459;SDS011;65299;46.084;18.762;2023-08-17T10:41:19;8.13;;;6.00;;
76459;SDS011;65299;46.084;18.762;2023-08-17T10:47:48;6.78;;;5.95;;
76459;SDS011;65299;46.084;18.762;2023-08-17T10:50:58;8.63;;;6.60;;
76459;SDS011;65299;46.084;18.762;2023-08-17T10:54:03;7.63;;;6.28;;
76459;SDS011;65299;46.084;18.762;2023-08-17T11:00:38;8.35;;;5.85;;
76459;SDS011;65299;46.084;18.762;2023-08-17T11:03:39;6.67;;;5.93;;
76459;SDS011;65299;46.084;18.762;2023-08-17T11:06:42;6.82;;;5.65;;
76459;SDS011;65299;46.084;18.762;2023-08-17T11:09:45;7.38;;;6.05;;
76459;SDS011;65299;46.084;18.762;2023-08-17T11:12:46;6.80;;;5.97;;
76459;SDS011;65299;46.084;18.762;2023-08-17T11:15:47;7.87;;;5.97;;
76459;SDS011;65299;46.084;18.762;2023-08-17T11:18:49;6.85;;;6.15;;
76459;SDS011;65299;46.084;18.762;2023-08-17T11:21:50;7.47;;;5.90;;
76459;SDS011;65299;46.084;18.762;2023-08-17T11:24:51;6.82;;;5.68;;
76459;SDS011;65299;46.084;18.762;2023-08-17T11:27:52;8.00;;;5.90;;
76459;SDS011;65299;46.084;18.762;2023-08-17T11:30:57;6.15;;;5.55;;
76459;SDS011;65299;46.084;18.762;2023-08-17T11:34:00;7.88;;;5.50;;
76459;SDS011;65299;46.084;18.762;2023-08-17T11:37:01;7.00;;;5.57;;
76459;SDS011;65299;46.084;18.762;2023-08-17T11:40:01;7.77;;;5.50;;
76459;SDS011;65299;46.084;18.762;2023-08-17T11:43:02;6.20;;;5.60;;
76459;SDS011;65299;46.084;18.762;2023-08-17T11:46:03;6.57;;;5.90;;
76459;SDS011;65299;46.084;18.762;2023-08-17T11:49:05;7.15;;;5.75;;
76459;SDS011;65299;46.084;18.762;2023-08-17T11:52:08;6.27;;;5.60;;
76459;SDS011;65299;46.084;18.762;2023-08-17T11:55:09;7.55;;;5.20;;
76459;SDS011;65299;46.084;18.762;2023-08-17T11:58:10;7.43;;;5.57;;
76459;SDS011;65299;46.084;18.762;2023-08-17T12:01:11;7.13;;;6.17;;
76459;SDS011;65299;46.084;18.762;2023-08-17T12:04:12;7.43;;;5.45;;
76459;SDS011;65299;46.084;18.762;2023-08-17T12:07:13;6.37;;;5.33;;
76459;SDS011;65299;46.084;18.762;2023-08-17T12:10:13;6.77;;;5.40;;
76459;SDS011;65299;46.084;18.762;2023-08-17T12:13:14;6.22;;;5.43;;
76459;SDS011;65299;46.084;18.762;2023-08-17T12:16:15;9.97;;;5.53;;
76459;SDS011;65299;46.084;18.762;2023-08-17T12:19:15;6.97;;;5.60;;
76459;SDS011;65299;46.084;18.762;2023-08-17T12:22:16;7.60;;;5.60;;
76459;SDS011;65299;46.084;18.762;2023-08-17T12:25:20;8.52;;;5.43;;
76459;SDS011;65299;46.084;18.762;2023-08-17T12:28:22;6.13;;;5.50;;
76459;SDS011;65299;46.084;18.762;2023-08-17T12:31:23;8.02;;;5.60;;
76459;SDS011;65299;46.084;18.762;2023-08-17T12:34:24;11.40;;;5.30;;
76459;SDS011;65299;46.084;18.762;2023-08-17T12:37:24;5.88;;;5.15;;
76459;SDS011;65299;46.084;18.762;2023-08-17T12:40:24;5.93;;;5.20;;
76459;SDS011;65299;46.084;18.762;2023-08-17T12:43:25;8.90;;;5.17;;
76459;SDS011;65299;46.084;18.762;2023-08-17T12:46:25;6.90;;;5.53;;
76459;SDS011;65299;46.084;18.762;2023-08-17T12:49:26;6.03;;;5.43;;
76459;SDS011;65299;46.084;18.762;2023-08-17T12:52:27;7.23;;;5.40;;
76459;SDS011;65299;46.084;18.762;2023-08-17T12:55:28;6.05;;;5.45;;
76459;SDS011;65299;46.084;18.762;2023-08-17T12:58:28;5.63;;;5.13;;
76459;SDS011;65299;46.084;18.762;2023-08-17T13:01:28;6.60;;;5.33;;
76459;SDS011;65299;46.084;18.762;2023-08-17T13:04:29;9.00;;;5.50;;
76459;SDS011;65299;46.084;18.762;2023-08-17T13:07:29;6.73;;;5.77;;
76459;SDS011;65299;46.084;18.762;2023-08-17T13:10:30;6.23;;;5.23;;
76459;SDS011;65299;46.084;18.762;2023-08-17T13:13:30;6.37;;;5.77;;
76459;SDS011;65299;46.084;18.762;2023-08-17T13:16:31;8.63;;;4.77;;
76459;SDS011;65299;46.084;18.762;2023-08-17T13:19:31;6.17;;;4.50;;
76459;SDS011;65299;46.084;18.762;2023-08-17T13:22:32;5.30;;;4.80;;
76459;SDS011;65299;46.084;18.762;2023-08-17T13:25:32;6.10;;;5.50;;
76459;SDS011;65299;46.084;18.762;2023-08-17T13:28:33;5.32;;;4.82;;
76459;SDS011;65299;46.084;18.762;2023-08-17T13:31:33;7.10;;;5.27;;
76459;SDS011;65299;46.084;18.762;2023-08-17T13:34:34;6.17;;;5.30;;
76459;SDS011;65299;46.084;18.762;2023-08-17T13:37:36;7.03;;;5.33;;
76459;SDS011;65299;46.084;18.762;2023-08-17T13:40:37;7.63;;;4.88;;
76459;SDS011;65299;46.084;18.762;2023-08-17T13:43:38;6.22;;;5.13;;
76459;SDS011;65299;46.084;18.762;2023-08-17T13:46:39;5.93;;;5.03;;
76459;SDS011;65299;46.084;18.762;2023-08-17T13:49:39;6.10;;;5.20;;
76459;SDS011;65299;46.084;18.762;2023-08-17T13:52:40;5.17;;;4.67;;
76459;SDS011;65299;46.084;18.762;2023-08-17T13:55:40;7.05;;;4.88;;
76459;SDS011;65299;46.084;18.762;2023-08-17T13:58:40;7.03;;;4.67;;
76459;SDS011;65299;46.084;18.762;2023-08-17T14:01:41;7.23;;;5.27;;
76459;SDS011;65299;46.084;18.762;2023-08-17T14:04:41;7.87;;;5.00;;
76459;SDS011;65299;46.084;18.762;2023-08-17T14:07:42;5.50;;;5.00;;
76459;SDS011;65299;46.084;18.762;2023-08-17T14:10:42;6.23;;;4.50;;
76459;SDS011;65299;46.084;18.762;2023-08-17T14:13:42;5.13;;;4.60;;
76459;SDS011;65299;46.084;18.762;2023-08-17T14:16:43;7.70;;;5.07;;
76459;SDS011;65299;46.084;18.762;2023-08-17T14:19:43;8.93;;;5.03;;
76459;SDS011;65299;46.084;18.762;2023-08-17T14:22:44;6.15;;;5.28;;
76459;SDS011;65299;46.084;18.762;2023-08-17T14:25:44;6.83;;;4.80;;
76459;SDS011;65299;46.084;18.762;2023-08-17T14:28:44;5.10;;;4.60;;
76459;SDS011;65299;46.084;18.762;2023-08-17T14:31:45;7.50;;;4.90;;
76459;SDS011;65299;46.084;18.762;2023-08-17T14:34:45;5.82;;;4.57;;
76459;SDS011;65299;46.084;18.762;2023-08-17T14:37:46;6.23;;;4.53;;
76459;SDS011;65299;46.084;18.762;2023-08-17T14:40:47;5.95;;;4.93;;
76459;SDS011;65299;46.084;18.762;2023-08-17T14:43:48;5.50;;;4.63;;
76459;SDS011;65299;46.084;18.762;2023-08-17T14:46:49;5.57;;;4.50;;
76459;SDS011;65299;46.084;18.762;2023-08-17T14:49:49;5.20;;;4.70;;
76459;SDS011;65299;46.084;18.762;2023-08-17T14:52:50;6.00;;;4.93;;
76459;SDS011;65299;46.084;18.762;2023-08-17T14:55:50;6.90;;;4.47;;
76459;SDS011;65299;46.084;18.762;2023-08-17T14:58:51;7.22;;;5.07;;
76459;SDS011;65299;46.084;18.762;2023-08-17T15:01:51;5.30;;;4.80;;
76459;SDS011;65299;46.084;18.762;2023-08-17T15:04:52;5.60;;;4.70;;
76459;SDS011;65299;46.084;18.762;2023-08-17T15:07:53;6.70;;;5.23;;
76459;SDS011;65299;46.084;18.762;2023-08-17T15:10:53;6.43;;;5.03;;
76459;SDS011;65299;46.084;18.762;2023-08-17T15:13:53;5.83;;;5.23;;
76459;SDS011;65299;46.084;18.762;2023-08-17T15:16:54;5.70;;;5.10;;
76459;SDS011;65299;46.084;18.762;2023-08-17T15:19:54;6.22;;;5.10;;
76459;SDS011;65299;46.084;18.762;2023-08-17T15:22:55;6.23;;;5.30;;
76459;SDS011;65299;46.084;18.762;2023-08-17T15:25:55;5.77;;;5.27;;
76459;SDS011;65299;46.084;18.762;2023-08-17T15:28:55;5.60;;;5.10;;
76459;SDS011;65299;46.084;18.762;2023-08-17T15:31:56;7.57;;;5.80;;
76459;SDS011;65299;46.084;18.762;2023-08-17T15:34:56;7.50;;;5.32;;
76459;SDS011;65299;46.084;18.762;2023-08-17T15:37:57;8.03;;;5.30;;
76459;SDS011;65299;46.084;18.762;2023-08-17T15:40:57;5.90;;;5.30;;
76459;SDS011;65299;46.084;18.762;2023-08-17T15:43:58;8.87;;;5.43;;
76459;SDS011;65299;46.084;18.762;2023-08-17T15:46:58;6.20;;;5.28;;
76459;SDS011;65299;46.084;18.762;2023-08-17T15:50:00;5.83;;;5.23;;
76459;SDS011;65299;46.084;18.762;2023-08-17T15:53:00;6.85;;;5.32;;
76459;SDS011;65299;46.084;18.762;2023-08-17T15:56:02;5.65;;;5.22;;
76459;SDS011;65299;46.084;18.762;2023-08-17T15:59:02;7.17;;;5.40;;
76459;SDS011;65299;46.084;18.762;2023-08-17T16:02:03;5.60;;;5.10;;
76459;SDS011;65299;46.084;18.762;2023-08-17T16:05:03;5.78;;;5.18;;
76459;SDS011;65299;46.084;18.762;2023-08-17T16:08:04;6.10;;;5.50;;
76459;SDS011;65299;46.084;18.762;2023-08-17T16:11:05;6.20;;;5.60;;
76459;SDS011;65299;46.084;18.762;2023-08-17T16:14:05;5.80;;;5.30;;
76459;SDS011;65299;46.084;18.762;2023-08-17T16:17:06;7.43;;;5.37;;
76459;SDS011;65299;46.084;18.762;2023-08-17T16:20:06;6.50;;;5.43;;
76459;SDS011;65299;46.084;18.762;2023-08-17T16:23:07;7.60;;;6.05;;
76459;SDS011;65299;46.084;18.762;2023-08-17T16:26:08;9.60;;;6.27;;
76459;SDS011;65299;46.084;18.762;2023-08-17T16:29:08;6.75;;;5.72;;
76459;SDS011;65299;46.084;18.762;2023-08-17T16:32:08;5.87;;;5.27;;
76459;SDS011;65299;46.084;18.762;2023-08-17T16:35:09;6.20;;;5.60;;
76459;SDS011;65299;46.084;18.762;2023-08-17T16:38:10;6.07;;;5.47;;
76459;SDS011;65299;46.084;18.762;2023-08-17T16:41:10;6.03;;;5.43;;
76459;SDS011;65299;46.084;18.762;2023-08-17T16:44:11;7.23;;;5.60;;
76459;SDS011;65299;46.084;18.762;2023-08-17T16:47:11;6.63;;;5.90;;
76459;SDS011;65299;46.084;18.762;2023-08-17T16:50:12;7.40;;;5.67;;
76459;SDS011;65299;46.084;18.762;2023-08-17T16:53:12;6.35;;;5.70;;
76459;SDS011;65299;46.084;18.762;2023-08-17T16:56:13;7.27;;;5.70;;
76459;SDS011;65299;46.084;18.762;2023-08-17T16:59:13;6.80;;;5.60;;
76459;SDS011;65299;46.084;18.762;2023-08-17T17:02:14;7.20;;;5.70;;
76459;SDS011;65299;46.084;18.762;2023-08-17T17:05:14;6.50;;;5.38;;
76459;SDS011;65299;46.084;18.762;2023-08-17T17:08:15;7.37;;;5.17;;
76459;SDS011;65299;46.084;18.762;2023-08-17T17:11:15;7.07;;;5.33;;
76459;SDS011;65299;46.084;18.762;2023-08-17T17:14:16;6.40;;;5.80;;
76459;SDS011;65299;46.084;18.762;2023-08-17T17:17:16;5.85;;;5.05;;
76459;SDS011;65299;46.084;18.762;2023-08-17T17:20:16;7.83;;;5.60;;
76459;SDS011;65299;46.084;18.762;2023-08-17T17:23:17;6.63;;;5.93;;
76459;SDS011;65299;46.084;18.762;2023-08-17T17:26:17;9.23;;;5.77;;
76459;SDS011;65299;46.084;18.762;2023-08-17T17:29:20;6.77;;;5.60;;
76459;SDS011;65299;46.084;18.762;2023-08-17T17:32:20;6.70;;;5.97;;
76459;SDS011;65299;46.084;18.762;2023-08-17T17:35:21;6.63;;;5.37;;
76459;SDS011;65299;46.084;18.762;2023-08-17T17:38:21;6.77;;;5.70;;
76459;SDS011;65299;46.084;18.762;2023-08-17T17:41:22;7.37;;;5.40;;
76459;SDS011;65299;46.084;18.762;2023-08-17T17:44:22;6.28;;;5.68;;
76459;SDS011;65299;46.084;18.762;2023-08-17T17:47:23;6.07;;;5.37;;
76459;SDS011;65299;46.084;18.762;2023-08-17T17:50:23;12.67;;;5.87;;
76459;SDS011;65299;46.084;18.762;2023-08-17T17:53:23;5.97;;;4.90;;
76459;SDS011;65299;46.084;18.762;2023-08-17T17:56:37;5.80;;;5.30;;
76459;SDS011;65299;46.084;18.762;2023-08-17T17:59:43;7.53;;;5.83;;
76459;SDS011;65299;46.084;18.762;2023-08-17T18:02:45;5.95;;;5.18;;
76459;SDS011;65299;46.084;18.762;2023-08-17T18:05:46;5.93;;;5.33;;